createdAt,value
2022-08-04T00:03:13.873Z,96523.84
2022-08-04T00:06:28.574Z,96530.50
2022-08-04T00:09:35.065Z,96532.28
2022-08-04T00:12:39.519Z,96529.25
2022-08-04T00:15:37.965Z,96529.63
2022-08-04T00:18:45.398Z,96527.84
2022-08-04T00:21:55.511Z,96528.69
2022-08-04T00:24:52.815Z,96521.84
2022-08-04T00:27:49.909Z,96533.25
2022-08-04T00:30:46.896Z,96537.91
2022-08-04T00:33:46.349Z,96545.94
2022-08-04T00:36:44.350Z,96547.41
2022-08-04T00:39:42.177Z,96541.69
2022-08-04T00:43:07.098Z,96534.00
2022-08-04T00:46:24.770Z,96546.31
2022-08-04T00:50:00.185Z,96539.31
2022-08-04T00:53:27.667Z,96543.59
2022-08-04T00:57:02.138Z,96535.00
2022-08-04T01:00:11.916Z,96537.09
2022-08-04T01:03:23.873Z,96538.94
2022-08-04T01:06:41.078Z,96529.06
2022-08-04T01:10:17.834Z,96535.44
2022-08-04T01:13:50.663Z,96527.50
2022-08-04T01:16:54.833Z,96537.38
2022-08-04T01:20:10.170Z,96532.91
2022-08-04T01:23:44.155Z,96526.34
2022-08-04T01:27:11.995Z,96529.09
2022-08-04T01:30:10.742Z,96531.97
2022-08-04T01:33:12.908Z,96523.44
2022-08-04T01:36:11.844Z,96521.94
2022-08-04T01:39:27.909Z,96528.00
2022-08-04T01:42:31.588Z,96532.25
2022-08-04T01:45:30.420Z,96527.28
2022-08-04T01:48:29.241Z,96526.31
2022-08-04T01:51:26.397Z,96526.00
2022-08-04T01:54:25.461Z,96523.63
2022-08-04T01:57:37.674Z,96522.66
2022-08-04T02:00:42.235Z,96523.88
2022-08-04T02:04:18.796Z,96521.94
2022-08-04T02:07:26.795Z,96522.88
2022-08-04T02:11:20.495Z,96529.13
2022-08-04T02:14:40.592Z,96519.78
2022-08-04T02:17:43.491Z,96527.75
2022-08-04T02:20:46.135Z,96526.28
2022-08-04T02:23:46.773Z,96522.19
2022-08-04T02:26:48.755Z,96527.94
2022-08-04T02:30:12.048Z,96521.13
2022-08-04T02:33:13.428Z,96519.63
2022-08-04T02:36:22.607Z,96522.34
2022-08-04T02:39:21.571Z,96513.78
2022-08-04T02:42:19.299Z,96512.38
2022-08-04T02:45:19.187Z,96520.06
2022-08-04T02:48:30.306Z,96521.13
2022-08-04T02:51:56.075Z,96510.38
2022-08-04T02:54:57.809Z,96511.16
2022-08-04T02:57:56.350Z,96509.22
2022-08-04T03:00:53.252Z,96512.81
2022-08-04T03:04:24.951Z,96510.66
2022-08-04T03:08:08.699Z,96511.59
2022-08-04T03:11:57.688Z,96515.19
2022-08-04T03:15:30.135Z,96514.66
2022-08-04T03:19:03.726Z,96509.50
2022-08-04T03:22:45.061Z,96510.88
2022-08-04T03:26:36.751Z,96509.69
2022-08-04T03:30:06.961Z,96511.91
2022-08-04T03:33:25.418Z,96513.59
2022-08-04T03:37:01.029Z,96516.72
2022-08-04T03:40:28.875Z,96527.63
2022-08-04T03:43:59.035Z,96529.41
2022-08-04T03:47:21.011Z,96525.16
2022-08-04T03:51:32.296Z,96531.38
2022-08-04T03:55:29.919Z,96519.53
2022-08-04T03:59:12.427Z,96530.41
2022-08-04T04:02:41.007Z,96522.84
2022-08-04T04:06:28.752Z,96531.66
2022-08-04T04:10:16.976Z,96529.44
2022-08-04T04:13:52.396Z,96524.84
2022-08-04T04:17:16.092Z,96527.28
2022-08-04T04:20:45.532Z,96526.50
2022-08-04T04:24:09.731Z,96521.25
2022-08-04T04:27:28.846Z,96532.03
2022-08-04T04:30:45.349Z,96525.47
2022-08-04T04:34:22.895Z,96531.25
2022-08-04T04:37:34.551Z,96535.44
2022-08-04T04:41:10.514Z,96532.03
2022-08-04T04:44:30.879Z,96541.16
2022-08-04T04:48:08.164Z,96546.88
2022-08-04T04:51:48.336Z,96536.91
2022-08-04T04:54:51.682Z,96533.88
2022-08-04T04:57:54.287Z,96539.91
2022-08-04T05:01:14.911Z,96538.50
2022-08-04T05:04:40.911Z,96533.97
2022-08-04T05:08:04.353Z,96529.13
2022-08-04T05:14:24.849Z,96528.59
2022-08-04T05:15:34.369Z,96537.53
2022-08-04T05:18:35.248Z,96533.63
2022-08-04T05:22:04.269Z,96530.84
2022-08-04T05:25:31.693Z,96533.94
2022-08-04T05:28:43.251Z,96538.72
2022-08-04T05:31:49.855Z,96536.06
2022-08-04T05:35:00.210Z,96535.53
2022-08-04T05:38:01.754Z,96534.06
2022-08-04T05:40:59.512Z,96534.31
2022-08-04T05:43:58.000Z,96527.63
2022-08-04T05:46:59.894Z,96531.09
2022-08-04T05:50:01.709Z,96530.25
2022-08-04T05:53:01.318Z,96535.56
2022-08-04T05:56:00.095Z,96534.41
2022-08-04T05:58:58.353Z,96522.56
2022-08-04T06:01:58.281Z,96528.03
2022-08-04T06:04:57.305Z,96532.47
2022-08-04T06:08:04.585Z,96529.34
2022-08-04T06:11:12.264Z,96531.28
2022-08-04T06:14:11.952Z,96528.75
2022-08-04T06:18:33.338Z,96533.03
2022-08-04T06:20:36.418Z,96535.25
2022-08-04T06:23:37.686Z,96530.84
2022-08-04T06:26:52.631Z,96538.06
2022-08-04T06:29:51.852Z,96530.13
2022-08-04T06:33:03.493Z,96524.56
2022-08-04T06:36:06.792Z,96526.38
2022-08-04T06:39:05.629Z,96516.81
2022-08-04T06:42:21.659Z,96519.47
2022-08-04T06:45:21.404Z,96511.41
2022-08-04T06:48:20.379Z,96510.63
2022-08-04T06:51:26.165Z,96509.91
2022-08-04T06:54:30.525Z,96507.50
2022-08-04T06:57:29.795Z,96504.25
2022-08-04T07:00:27.841Z,96514.88
2022-08-04T07:03:24.827Z,96515.41
2022-08-04T07:06:23.167Z,96514.75
2022-08-04T07:09:20.213Z,96514.53
2022-08-04T07:12:21.491Z,96510.34
2022-08-04T07:15:19.404Z,96512.91
2022-08-04T07:18:17.021Z,96512.75
2022-08-04T07:21:23.774Z,96507.47
2022-08-04T07:24:20.672Z,96505.72
2022-08-04T07:27:17.654Z,96500.38
2022-08-04T07:30:36.949Z,96496.16
2022-08-04T07:33:34.308Z,96498.16
2022-08-04T07:36:39.384Z,96495.03
2022-08-04T07:39:48.459Z,96496.56
2022-08-04T07:42:46.176Z,96491.03
2022-08-04T07:45:43.613Z,96491.41
2022-08-04T07:48:41.134Z,96491.84
2022-08-04T07:51:38.684Z,96491.06
2022-08-04T07:54:36.233Z,96486.28
2022-08-04T07:57:40.432Z,96486.53
2022-08-04T08:00:39.573Z,96480.34
2022-08-04T08:03:37.968Z,96483.22
2022-08-04T08:06:42.647Z,96484.38
2022-08-04T08:09:40.255Z,96476.47
2022-08-04T08:12:51.101Z,96476.69
2022-08-04T08:15:49.122Z,96468.28
2022-08-04T08:18:49.959Z,96476.31
2022-08-04T08:21:59.911Z,96477.16
2022-08-04T08:24:57.425Z,96471.94
2022-08-04T08:27:56.313Z,96469.28
2022-08-04T08:30:53.598Z,96464.94
2022-08-04T08:33:52.453Z,96474.56
2022-08-04T08:36:59.056Z,96463.41
2022-08-04T08:40:37.856Z,96463.81
2022-08-04T08:44:05.092Z,96468.91
2022-08-04T08:48:05.771Z,96470.34
2022-08-04T08:51:33.859Z,96461.47
2022-08-04T08:54:56.561Z,96458.38
2022-08-04T08:58:24.826Z,96466.72
2022-08-04T09:01:51.779Z,96447.09
2022-08-04T09:05:39.076Z,96447.03
2022-08-04T09:09:03.932Z,96456.13
2022-08-04T09:12:39.042Z,96452.34
2022-08-04T09:15:52.386Z,96445.72
2022-08-04T09:19:02.652Z,96447.50
2022-08-04T09:22:13.615Z,96443.28
2022-08-04T09:25:30.776Z,96451.25
2022-08-04T09:28:53.488Z,96442.97
2022-08-04T09:32:10.965Z,96440.34
2022-08-04T09:35:26.393Z,96436.47
2022-08-04T09:38:58.063Z,96437.72
2022-08-04T09:42:26.518Z,96438.91
2022-08-04T09:45:56.009Z,96443.66
2022-08-04T09:49:02.148Z,96441.69
2022-08-04T09:52:11.567Z,96444.91
2022-08-04T09:55:53.936Z,96431.09
2022-08-04T09:59:23.939Z,96441.69
2022-08-04T10:02:24.423Z,96428.72
2022-08-04T10:06:08.632Z,96424.88
2022-08-04T10:09:52.455Z,96434.19
2022-08-04T10:12:56.803Z,96431.50
2022-08-04T10:16:24.299Z,96436.25
2022-08-04T10:19:31.572Z,96434.69
2022-08-04T10:22:55.428Z,96426.81
2022-08-04T10:26:58.095Z,96433.38
2022-08-04T10:29:58.527Z,96420.06
2022-08-04T10:33:18.172Z,96410.56
2022-08-04T10:36:21.291Z,96411.22
2022-08-04T10:39:43.602Z,96410.38
2022-08-04T10:42:53.851Z,96402.59
2022-08-04T10:46:05.603Z,96403.56
2022-08-04T10:49:16.517Z,96398.13
2022-08-04T10:52:33.768Z,96400.63
2022-08-04T10:56:07.477Z,96405.66
2022-08-04T10:59:14.181Z,96391.09
2022-08-04T11:02:36.296Z,96388.09
2022-08-04T11:06:03.640Z,96386.25
2022-08-04T11:09:02.953Z,96380.59
2022-08-04T11:12:23.297Z,96377.28
2022-08-04T11:15:27.715Z,96379.59
2022-08-04T11:18:41.428Z,96378.16
2022-08-04T11:21:47.513Z,96364.09
2022-08-04T11:25:19.298Z,96369.44
2022-08-04T11:29:03.147Z,96377.41
2022-08-04T11:32:05.778Z,96374.03
2022-08-04T11:35:09.843Z,96372.03
2022-08-04T11:38:29.062Z,96375.56
2022-08-04T11:41:58.806Z,96374.00
2022-08-04T11:45:07.049Z,96352.09
2022-08-04T11:48:33.710Z,96367.72
2022-08-04T11:51:32.036Z,96363.69
2022-08-04T11:54:30.830Z,96363.50
2022-08-04T11:57:35.681Z,96363.91
2022-08-04T12:00:36.052Z,96366.19
2022-08-04T12:04:03.144Z,96349.78
2022-08-04T12:07:41.189Z,96363.81
2022-08-04T12:11:21.117Z,96363.22
2022-08-04T12:14:33.943Z,96347.47
2022-08-04T12:18:09.231Z,96344.84
2022-08-04T12:21:15.040Z,96349.88
2022-08-04T12:24:23.596Z,96346.34
2022-08-04T12:27:35.063Z,96338.03
2022-08-04T12:30:59.211Z,96342.09
2022-08-04T12:34:24.364Z,96329.03
2022-08-04T12:37:59.342Z,96336.09
2022-08-04T12:40:59.684Z,96322.72
2022-08-04T12:44:07.582Z,96329.00
2022-08-04T12:47:29.046Z,96327.66
2022-08-04T12:50:27.994Z,96321.84
2022-08-04T12:53:50.851Z,96312.16
2022-08-04T12:56:48.871Z,96315.53
2022-08-04T12:59:57.181Z,96316.16
2022-08-04T13:03:04.529Z,96311.31
2022-08-04T13:06:01.861Z,96309.41
2022-08-04T13:09:20.735Z,96318.28
2022-08-04T13:12:32.214Z,96309.09
2022-08-04T13:15:31.103Z,96305.75
2022-08-04T13:18:36.790Z,96312.59
2022-08-04T13:21:50.381Z,96309.34
2022-08-04T13:24:56.999Z,96300.34
2022-08-04T13:28:19.420Z,96288.84
2022-08-04T13:31:26.623Z,96289.28
2022-08-04T13:34:34.760Z,96291.03
2022-08-04T13:37:36.033Z,96290.63
2022-08-04T13:40:33.689Z,96279.56
2022-08-04T13:44:16.978Z,96286.50
2022-08-04T13:47:10.140Z,96276.00
2022-08-04T13:50:23.867Z,96275.44
2022-08-04T13:53:21.900Z,96270.44
2022-08-04T13:56:19.500Z,96269.84
2022-08-04T13:59:19.083Z,96264.25
2022-08-04T14:02:49.167Z,96282.72
2022-08-04T14:06:05.051Z,96259.31
2022-08-04T14:09:22.270Z,96262.56
2022-08-04T14:12:46.390Z,96259.09
2022-08-04T14:16:02.617Z,96253.03
2022-08-04T14:19:01.893Z,96257.16
2022-08-04T14:21:58.963Z,96256.31
2022-08-04T14:25:15.128Z,96252.44
2022-08-04T14:28:13.229Z,96256.31
2022-08-04T14:31:18.028Z,96240.03
2022-08-04T14:34:30.128Z,96246.69
2022-08-04T14:37:27.049Z,96238.38
2022-08-04T14:40:44.982Z,96239.25
2022-08-04T14:43:59.952Z,96245.78
2022-08-04T14:46:59.464Z,96238.13
2022-08-04T14:49:56.305Z,96237.44
2022-08-04T14:53:04.718Z,96242.66
2022-08-04T14:56:01.685Z,96240.53
2022-08-04T14:59:03.599Z,96244.16
2022-08-04T15:02:01.684Z,96238.59
2022-08-04T15:04:59.759Z,96243.25
2022-08-04T15:08:17.424Z,96235.16
2022-08-04T15:11:22.701Z,96237.00
2022-08-04T15:14:36.644Z,96230.13
2022-08-04T15:17:35.177Z,96228.75
2022-08-04T15:20:32.591Z,96223.06
2022-08-04T15:23:38.804Z,96229.28
2022-08-04T15:26:51.797Z,96221.06
2022-08-04T15:30:00.338Z,96222.09
2022-08-04T15:33:03.001Z,96211.72
2022-08-04T15:36:56.679Z,96210.94
2022-08-04T15:40:08.924Z,96206.00
2022-08-04T15:43:44.980Z,96200.38
2022-08-04T15:46:47.949Z,96203.13
2022-08-04T15:49:45.373Z,96192.16
2022-08-04T15:53:12.360Z,96185.13
2022-08-04T15:56:26.592Z,96201.16
2022-08-04T16:00:02.420Z,96201.22
2022-08-04T16:02:59.260Z,96196.34
2022-08-04T16:05:56.289Z,96204.59
2022-08-04T16:08:57.856Z,96203.56
2022-08-04T16:11:55.566Z,96195.69
2022-08-04T16:14:52.416Z,96192.13
2022-08-04T16:17:49.369Z,96186.09
2022-08-04T16:20:47.383Z,96186.28
2022-08-04T16:24:06.955Z,96185.53
2022-08-04T16:27:12.014Z,96182.47
2022-08-04T16:30:14.995Z,96181.88
2022-08-04T16:33:11.906Z,96183.28
2022-08-04T16:36:12.311Z,96174.91
2022-08-04T16:39:19.311Z,96182.63
2022-08-04T16:42:31.245Z,96186.19
2022-08-04T16:45:47.594Z,96184.34
2022-08-04T16:49:07.287Z,96174.00
2022-08-04T16:52:09.449Z,96171.22
2022-08-04T16:55:10.600Z,96169.59
2022-08-04T16:58:07.736Z,96168.28
2022-08-04T17:01:11.432Z,96171.53
2022-08-04T17:04:28.388Z,96171.25
2022-08-04T17:07:25.252Z,96166.13
2022-08-04T17:10:37.828Z,96163.47
2022-08-04T17:14:04.791Z,96158.78
2022-08-04T17:17:04.285Z,96160.22
2022-08-04T17:20:06.453Z,96155.19
2022-08-04T17:24:16.257Z,96150.28
2022-08-04T17:26:54.297Z,96148.41
2022-08-04T17:29:51.810Z,96162.59
2022-08-04T17:32:48.795Z,96160.34
2022-08-04T17:35:48.761Z,96153.75
2022-08-04T17:38:56.240Z,96160.63
2022-08-04T17:41:57.093Z,96166.78
2022-08-04T17:45:51.222Z,96155.06
2022-08-04T17:48:42.446Z,96153.91
2022-08-04T17:52:07.062Z,96158.78
2022-08-04T17:55:06.789Z,96163.91
2022-08-04T17:58:21.195Z,96167.47
2022-08-04T18:01:25.978Z,96174.19
2022-08-04T18:04:37.378Z,96175.44
2022-08-04T18:08:39.780Z,96175.22
2022-08-04T18:10:56.781Z,96173.94
2022-08-04T18:13:57.118Z,96179.28
2022-08-04T18:16:54.685Z,96177.00
2022-08-04T18:19:53.161Z,96182.72
2022-08-04T18:22:53.304Z,96183.50
2022-08-04T18:25:52.277Z,96180.13
2022-08-04T18:28:49.298Z,96186.41
2022-08-04T18:31:46.177Z,96177.19
2022-08-04T18:34:55.126Z,96178.09
2022-08-04T18:41:09.456Z,96196.03
2022-08-04T18:44:06.499Z,96189.66
2022-08-04T18:47:22.311Z,96184.78
2022-08-04T18:51:00.805Z,96193.38
2022-08-04T18:53:37.435Z,96193.56
2022-08-04T18:56:34.956Z,96202.69
2022-08-04T18:59:33.004Z,96203.38
2022-08-04T19:02:30.786Z,96202.81
2022-08-04T19:05:37.752Z,96207.00
2022-08-04T19:08:41.969Z,96211.31
2022-08-04T19:11:54.763Z,96211.75
2022-08-04T19:14:57.863Z,96216.72
2022-08-04T19:17:59.840Z,96222.22
2022-08-04T19:20:57.110Z,96227.66
2022-08-04T19:24:28.244Z,96224.59
2022-08-04T19:27:12.114Z,96237.91
2022-08-04T19:30:09.702Z,96237.75
2022-08-04T19:33:08.657Z,96233.78
2022-08-04T19:36:06.597Z,96232.81
2022-08-04T19:39:11.221Z,96245.09
2022-08-04T19:42:08.578Z,96243.47
2022-08-04T19:48:30.523Z,96239.66
2022-08-04T19:51:30.363Z,96253.06
2022-08-04T19:54:28.579Z,96243.41
2022-08-04T19:57:35.682Z,96246.66
2022-08-04T20:00:34.528Z,96244.75
2022-08-04T20:04:09.174Z,96250.22
2022-08-04T20:06:50.076Z,96249.41
2022-08-04T20:09:53.539Z,96249.19
2022-08-04T20:12:55.605Z,96253.16
2022-08-04T20:15:58.086Z,96252.34
2022-08-04T20:18:59.473Z,96251.94
2022-08-04T20:22:00.146Z,96255.44
2022-08-04T20:25:18.036Z,96258.13
2022-08-04T20:28:36.566Z,96241.88
2022-08-04T20:31:33.260Z,96249.03
2022-08-04T20:34:41.545Z,96253.38
2022-08-04T20:37:56.935Z,96253.84
2022-08-04T20:40:58.955Z,96251.97
2022-08-04T20:43:58.214Z,96260.91
2022-08-04T20:46:55.075Z,96260.19
2022-08-04T20:49:52.274Z,96253.88
2022-08-04T20:52:49.926Z,96254.75
2022-08-04T20:59:07.785Z,96251.16
2022-08-04T21:02:06.278Z,96249.38
2022-08-04T21:05:13.302Z,96255.56
2022-08-04T21:08:10.137Z,96253.22
2022-08-04T21:11:07.090Z,96258.69
2022-08-04T21:14:05.977Z,96261.00
2022-08-04T21:17:03.072Z,96253.59
2022-08-04T21:20:00.861Z,96249.66
2022-08-04T21:22:59.492Z,96246.50
2022-08-04T21:26:03.116Z,96245.84
2022-08-04T21:28:59.939Z,96255.28
2022-08-04T21:31:56.777Z,96254.91
2022-08-04T21:34:54.744Z,96256.47
2022-08-04T21:37:56.533Z,96258.78
2022-08-04T21:40:55.606Z,96258.00
2022-08-04T21:43:52.871Z,96251.78
2022-08-04T21:46:50.157Z,96249.06
2022-08-04T21:49:56.053Z,96257.25
2022-08-04T21:52:53.961Z,96259.22
2022-08-04T21:56:04.976Z,96261.91
2022-08-04T21:59:10.617Z,96261.56
2022-08-04T22:02:08.553Z,96259.97
2022-08-04T22:05:07.345Z,96268.19
2022-08-04T22:08:05.514Z,96262.31
2022-08-04T22:11:02.530Z,96262.72
2022-08-04T22:14:10.975Z,96272.09
2022-08-04T22:17:13.712Z,96261.16
2022-08-04T22:20:27.246Z,96266.59
2022-08-04T22:23:25.457Z,96265.06
2022-08-04T22:26:26.970Z,96259.56
2022-08-04T22:29:24.026Z,96267.34
2022-08-04T22:32:20.840Z,96263.78
2022-08-04T22:35:43.497Z,96258.72
2022-08-04T22:38:48.636Z,96259.91
2022-08-04T22:42:03.781Z,96257.84
2022-08-04T22:45:02.037Z,96250.84
2022-08-04T22:47:58.919Z,96251.19
2022-08-04T22:50:55.908Z,96246.25
2022-08-04T22:53:53.181Z,96240.50
2022-08-04T22:56:50.010Z,96243.13
2022-08-04T22:59:49.457Z,96238.03
2022-08-04T23:02:46.313Z,96243.06
2022-08-04T23:05:48.181Z,96243.44
2022-08-04T23:08:48.443Z,96247.59
2022-08-04T23:11:45.889Z,96244.34
2022-08-04T23:14:47.362Z,96242.84
2022-08-04T23:17:48.591Z,96247.84
2022-08-04T23:20:47.407Z,96237.50
2022-08-04T23:24:01.039Z,96244.34
2022-08-04T23:27:00.490Z,96237.75
2022-08-04T23:29:57.345Z,96245.16
2022-08-04T23:32:54.266Z,96243.91
2022-08-04T23:35:58.069Z,96249.75
2022-08-04T23:38:55.185Z,96245.47
2022-08-04T23:41:54.866Z,96244.25
2022-08-04T23:44:54.575Z,96244.38
2022-08-04T23:48:19.060Z,96245.94
2022-08-04T23:51:14.845Z,96253.84
2022-08-04T23:54:12.352Z,96247.94
2022-08-04T23:57:31.478Z,96250.03
